AJJ weather

Akjoujt Airport
Akjoujt, Inchiri Region, Mauritania

Public forecast

Using degrees Celsius for public forecast. Weather courtesy of forecast.io.

METAR (pilot weather report)

Report is more than 6 hours old.

Closest report is Atar International Airport, 88.7 nm (164.3 km) ENE. Retrieved 2019/09/18 09:00 UTC (18 hours ago):

GQPA 180900Z 36019KT 6000 BLSA NSC 35/14 Q1014

TAF (pilot weather forecast)

Closest forecast is Nouakchott–Oumtounsy International Airport, 124.1 nm (229.9 km) SW. Retrieved 2019/09/19 00:00 UTC (3 hours ago):

TAF GQNO 182300Z 1900/2006 26012KT 8000 SCT010 TEMPO 1902/1909 BKN008